Details From PAJN - Juneau Intl
To PAYA - Yakutat
Flight Number -
Tags Generated
Created
Modified
Stats Distance 172 nm / 318 km
Max Altitude 0 ft / 0 m
Waypoints 2
Social Downloads 2
Likes 0
Share VATSIM

Download

Looking for another format? Having issues loading an existing format? Contact us
Advertisement - Login to hide

Notes

Generated

Route

PAJN PAYA

ID Type Via Altitude Latitude Longitude Leg Dist Tot Dist Heading (true) Name
O PAJN APT - 0 ft / 0 m 58.35793˚ -134.59756˚ - 0 nm - -
O PAYA APT - 0 ft / 0 m 59.49627˚ -139.68486˚ 171 nm 171 nm 296° / 291° -

Altitude Profile

Advertisement - Login to hide

Weather


0- 5 10 15 20 25 30 35+ Temperature / ° C

Clouds and Precipitation
Forecast for 2018-05-24 06:00 UTC. Updated 3 hours ago

Ground ~20,000 ft ~40,000 ft Winds

PAJN

Details ICAO PAJN (JNU)
Name Juneau Intl
Region USA (Alaska)
Timezone America/Juneau (UTC-8.0)
Stats Elevation 21 ft / 6 m (AMSL)
Location 58.354964° -134.576278°
Runways 1
Magnetic Variation 19.020° E

METAR

PAJN 240753Z 00000KT 10SM -RA FEW009 BKN036 OVC048 08/08 A2986

Decode

TAF

PAJN 240533Z 2406/2506 15007KT P6SM -SHRA SCT035 OVC050 TEMPO 2406/2410 5SM -SHRA BR BKN025 OVC035 FM241800 11013KT P6SM VCSH OVC040

Decode

Departure Runways

ID Width Length Bearing (true) Bearing (mag) Surface Threshold Offset Overrun Length
08 150 ft / 46 m 8,430 ft / 2,570 m 104.87° 85.85° Asphalt 0 ft / 0 m 450 ft / 137 m
26 150 ft / 46 m 8,430 ft / 2,570 m 284.90° 265.88° Asphalt 0 ft / 0 m 225 ft / 69 m

PAYA

Details ICAO PAYA (YAK)
Name YAKUTAT
Region USA (Alaska)
Timezone America/Yakutat (UTC-8.0)
Stats Elevation 33 ft / 10 m (AMSL)
Location 59.503248° -139.661250°
Runways 2
Magnetic Variation 18.567° E

METAR

PAYA 240753Z AUTO 00000KT 10SM -RA BKN043 OVC060 08/07 A2982 RMK AO2 RAB43 SLP099 P0000 T00780067 TSNO

Decode

TAF

PAYA 240533Z 2406/2506 VRB04KT P6SM VCSH BKN035 OVC070 TEMPO 2406/2410 5SM -SHRA BR SCT010 BKN025 OVC035 FM241000 13005KT 6SM -SHRA BR BKN025 OVC035 FM241900 09009KT P6SM -SHRA BKN035 OVC050 AMD LTD TO CLD VIS AND WIND

Decode

Destination Runways

ID Width Length Bearing (true) Bearing (mag) Surface Threshold Offset Overrun Length
02 150 ft / 46 m 6,460 ft / 1,969 m 44.92° 26.35° Concrete 1,388 ft / 423 m 0 ft / 0 m
11 150 ft / 46 m 7,727 ft / 2,355 m 135.05° 116.48° Asphalt 0 ft / 0 m 0 ft / 0 m
20 150 ft / 46 m 6,460 ft / 1,969 m 224.95° 206.38° Concrete 0 ft / 0 m 0 ft / 0 m
29 150 ft / 46 m 7,727 ft / 2,355 m 315.08° 296.51° Asphalt 0 ft / 0 m 0 ft / 0 m

Approach Navaids

Runway Type Ident Frequency Range Bearing (true) Bearing (mag) Slope Elevation
11 Localiser IYAK 111.10 MHz 18 nm / 33 km 135.08° 116.52° - 24 ft / 7 m (AMSL)
11 Glidescope IYAK 111.10 MHz 10 nm / 19 km 135.06° 116.50° 3.00° 31 ft / 9 m (AMSL)

Popular Alternatives